Kelly, Kansas
Current Conditions -  °F | °C
As of 11:53 AM on Saturday 25 Oct 2014 (Local Time) from KFNB Reporting Station
Clear Clear  
Wind Chill: 71°   Ceiling: Unl
Heat Index: 71°   Visibility: 10mi
Dew Point: 50°   Wind: 8mph
Humidity: 47%   Direction: 80°E
Pressure: 30.09"   Gusts: NA
Location:  39.8497°N, 96.0411°W
Report Text: KFNB 251653Z AUTO 08007KT 10SM CLR 22/10 A3009 RMK AO2 SLP184 T02170100
Loading
Personal Weather Stations






























Interactive Weather Map
Tropical Storm Tracking
New forecast layout! Learn more

10-Day Weather Forecast

Advertisements
Track Severe Weather on mobile